Time;durP1;ratioP1;P1;durP2;ratioP2;P2;SDS_P1;SDS_P2;PMS_P1;PMS_P2;Temp;Humidity;BMP_temperature;BMP_pressure;BME280_temperature;BME280_humidity;BME280_pressure;Samples;Min_cycle;Max_cycle;Signal;HPM_P1;HPM_P2
2022/05/12 02:10:55;;;;;;;14.93;8.05;;;10.30;99.90;;;;;;5142023;27;1262132;-84
2022/05/12 02:13:25;;;;;;;16.83;11.93;;;9.90;99.90;;;;;;5169526;27;20077;-88
2022/05/12 02:15:52;;;;;;;33.63;29.75;;;9.80;99.90;;;;;;5152033;27;20093;-87
2022/05/12 02:18:19;;;;;;;43.80;39.10;;;9.90;99.90;;;;;;5169712;27;20051;-86
2022/05/12 02:20:45;;;;;;;51.80;43.83;;;9.90;99.90;;;;;;5116849;27;20535;-87
2022/05/12 02:23:10;;;;;;;31.83;26.50;;;9.80;99.90;;;;;;5119630;27;20046;-87
2022/05/12 02:25:36;;;;;;;29.10;22.30;;;9.80;99.90;;;;;;5167751;27;20094;-88
2022/05/12 02:28:02;;;;;;;21.42;16.45;;;9.80;99.90;;;;;;5149796;27;20091;-88
2022/05/12 02:30:30;;;;;;;17.17;10.27;;;9.80;99.90;;;;;;5151658;27;20050;-85
2022/05/12 02:32:55;;;;;;;13.73;7.57;;;9.80;99.90;;;;;;5152902;27;20042;-86
2022/05/12 02:35:21;;;;;;;16.98;10.52;;;9.80;99.90;;;;;;5152314;27;20038;-86
2022/05/12 02:37:47;;;;;;;21.92;14.95;;;9.80;99.90;;;;;;5152667;27;20094;-86
2022/05/12 02:40:15;;;;;;;19.27;13.65;;;9.70;99.90;;;;;;5151819;27;20046;-86
2022/05/12 02:42:40;;;;;;;20.40;14.75;;;9.70;99.90;;;;;;5135231;27;20046;-86
2022/05/12 02:45:07;;;;;;;19.52;9.48;;;9.70;99.90;;;;;;5135058;27;20366;-86
2022/05/12 02:47:32;;;;;;;12.38;7.47;;;9.70;99.90;;;;;;5180945;27;20098;-85
2022/05/12 02:49:58;;;;;;;11.75;6.07;;;9.70;99.90;;;;;;5163110;27;20082;-85
2022/05/12 02:52:24;;;;;;;9.75;4.72;;;9.60;99.90;;;;;;5152496;27;20469;-85
2022/05/12 02:54:49;;;;;;;14.27;5.13;;;9.60;99.90;;;;;;5179434;27;20103;-85
2022/05/12 02:57:15;;;;;;;8.35;4.50;;;9.50;99.90;;;;;;5125107;27;20473;-85
2022/05/12 02:59:41;;;;;;;7.82;5.03;;;9.50;99.90;;;;;;5170219;27;20126;-84
2022/05/12 03:02:06;;;;;;;29.55;16.77;;;9.90;99.90;;;;;;5152168;27;20129;-81
2022/05/12 03:04:33;;;;;;;90.03;51.85;;;9.50;99.90;;;;;;5156891;27;20037;-84
2022/05/12 03:06:59;;;;;;;152.48;89.35;;;9.40;99.90;;;;;;5176326;27;20046;-84
2022/05/12 03:09:25;;;;;;;73.35;43.28;;;9.40;99.90;;;;;;5170800;27;20055;-83
2022/05/12 03:11:50;;;;;;;45.03;26.17;;;9.60;99.90;;;;;;5155110;27;20069;-85
2022/05/12 03:14:16;;;;;;;21.67;10.93;;;9.40;99.90;;;;;;5132397;27;20080;-86
2022/05/12 03:16:42;;;;;;;14.73;6.65;;;9.40;99.90;;;;;;5130543;27;20095;-85
2022/05/12 03:19:08;;;;;;;12.52;6.65;;;9.30;99.90;;;;;;5113366;27;20166;-86
2022/05/12 03:21:33;;;;;;;8.90;4.82;;;9.60;99.90;;;;;;5103667;27;20047;-86
2022/05/12 03:23:59;;;;;;;9.70;4.10;;;9.20;99.90;;;;;;5134041;27;20047;-86
2022/05/12 03:26:25;;;;;;;10.43;5.13;;;9.20;99.90;;;;;;5133980;27;20042;-85
2022/05/12 03:28:50;;;;;;;10.68;3.67;;;9.20;99.90;;;;;;5133784;27;20088;-85
2022/05/12 03:31:16;;;;;;;5.97;3.70;;;9.20;99.90;;;;;;5099108;27;20099;-85
2022/05/12 03:33:42;;;;;;;8.55;3.95;;;9.20;99.90;;;;;;5116689;27;20051;-85
2022/05/12 03:36:08;;;;;;;10.23;5.28;;;9.20;99.90;;;;;;5099565;27;20050;-85
2022/05/12 03:38:34;;;;;;;13.48;5.68;;;9.20;99.90;;;;;;5116151;27;20099;-85
2022/05/12 03:40:59;;;;;;;19.60;6.82;;;9.20;99.90;;;;;;5116501;27;20046;-86
2022/05/12 03:46:12;;;;;;;15.25;5.13;;;9.20;99.90;;;;;;5133419;27;20047;-85
2022/05/12 03:48:38;;;;;;;8.77;4.15;;;9.20;99.90;;;;;;5134471;27;20403;-86
2022/05/12 03:51:04;;;;;;;12.75;4.38;;;9.20;99.90;;;;;;5133303;27;20051;-86
2022/05/12 03:53:30;;;;;;;8.35;4.05;;;9.30;99.90;;;;;;5098595;27;20100;-85
2022/05/12 03:55:57;;;;;;;9.23;4.15;;;9.20;99.90;;;;;;5133059;27;20180;-85
2022/05/12 03:58:23;;;;;;;10.88;4.60;;;9.20;99.90;;;;;;5098936;27;20050;-85
2022/05/12 04:00:49;;;;;;;14.13;6.65;;;9.30;99.90;;;;;;5132657;27;20035;-85
2022/05/12 04:03:15;;;;;;;17.52;8.10;;;9.30;99.90;;;;;;5132655;27;20043;-85
2022/05/12 04:05:41;;;;;;;16.95;7.55;;;9.40;99.90;;;;;;5115887;27;20046;-85
2022/05/12 04:08:07;;;;;;;18.45;7.20;;;9.30;99.90;;;;;;5132700;27;20050;-86
2022/05/12 04:10:33;;;;;;;12.48;5.10;;;9.40;99.90;;;;;;5098518;27;20055;-86
2022/05/12 04:12:58;;;;;;;13.27;4.93;;;9.70;99.90;;;;;;5134272;27;20043;-85
2022/05/12 04:15:24;;;;;;;11.70;4.70;;;9.50;99.90;;;;;;5115714;27;20047;-86
2022/05/12 04:17:58;;;;;;;11.38;5.18;;;9.60;99.90;;;;;;5115967;27;20053;-85
2022/05/12 04:20:24;;;;;;;8.65;4.13;;;9.60;99.90;;;;;;5115876;27;20039;-85
2022/05/12 04:22:49;;;;;;;11.20;5.20;;;9.60;99.90;;;;;;5132978;27;20051;-86
2022/05/12 04:25:15;;;;;;;11.80;5.45;;;9.70;99.90;;;;;;5116089;27;20051;-85
2022/05/12 04:27:42;;;;;;;9.80;4.57;;;9.80;99.90;;;;;;5133577;27;20050;-86
2022/05/12 04:30:08;;;;;;;8.45;4.35;;;10.30;99.90;;;;;;5132787;27;20035;-85
2022/05/12 04:32:34;;;;;;;12.30;4.63;;;9.90;99.90;;;;;;5080957;27;20062;-85
2022/05/12 04:35:15;;;;;;;9.82;4.60;;;10.10;99.90;;;;;;5132514;27;20039;-85
2022/05/12 04:37:51;;;;;;;7.80;4.60;;;10.40;99.90;;;;;;5099831;27;20083;-85
2022/05/12 04:40:21;;;;;;;11.63;4.40;;;10.90;99.90;;;;;;5115287;27;20478;-85
2022/05/12 04:42:48;;;;;;;8.57;3.78;;;11.20;99.90;;;;;;5114980;27;20455;-85
2022/05/12 04:45:14;;;;;;;7.25;4.00;;;11.90;99.90;;;;;;5098174;27;20434;-84
2022/05/12 04:47:40;;;;;;;7.75;3.50;;;12.30;99.90;;;;;;5114587;27;20057;-85
2022/05/12 04:50:07;;;;;;;8.57;3.30;;;12.90;99.90;;;;;;5097510;27;20043;-85
2022/05/12 04:52:32;;;;;;;9.27;3.00;;;13.10;99.90;;;;;;5131107;27;20058;-85
2022/05/12 04:54:58;;;;;;;9.90;3.60;;;13.40;99.90;;;;;;5132802;27;20043;-85
2022/05/12 04:57:24;;;;;;;11.48;3.92;;;13.50;99.90;;;;;;5131259;27;20043;-85
2022/05/12 04:59:51;;;;;;;6.68;3.42;;;13.80;99.90;;;;;;5114531;27;20124;-85
2022/05/12 05:02:17;;;;;;;6.20;2.90;;;14.10;99.90;;;;;;5132740;27;20078;-85
2022/05/12 05:04:43;;;;;;;9.30;3.25;;;14.40;99.90;;;;;;5114123;27;20051;-86
2022/05/12 05:07:10;;;;;;;6.97;3.30;;;14.30;99.90;;;;;;5132555;27;20406;-87
2022/05/12 05:09:37;;;;;;;7.38;3.65;;;14.60;99.90;;;;;;5114075;27;20063;-86
2022/05/12 05:12:03;;;;;;;11.88;4.15;;;15.10;99.90;;;;;;5132618;27;20051;-85
2022/05/12 05:14:29;;;;;;;10.85;4.00;;;15.70;99.90;;;;;;5132219;27;20054;-84
2022/05/12 05:16:54;;;;;;;10.75;4.07;;;15.70;99.90;;;;;;5131240;27;20039;-86
2022/05/12 05:19:20;;;;;;;10.38;4.18;;;15.90;99.90;;;;;;5131117;27;20172;-84
2022/05/12 05:21:46;;;;;;;9.18;3.53;;;15.80;99.90;;;;;;5131255;27;20055;-84
2022/05/12 05:24:12;;;;;;;9.02;3.58;;;15.80;99.90;;;;;;5132160;27;20391;-84
2022/05/12 05:26:37;;;;;;;5.97;3.28;;;16.10;99.90;;;;;;5132389;27;20115;-84
2022/05/12 05:29:03;;;;;;;8.05;3.83;;;16.20;99.90;;;;;;5149459;27;20031;-82
2022/05/12 05:31:29;;;;;;;9.82;3.83;;;16.50;99.90;;;;;;5155910;27;20090;-82
2022/05/12 05:33:55;;;;;;;7.75;3.42;;;16.90;99.90;;;;;;5127304;27;20051;-85
2022/05/12 05:36:20;;;;;;;7.10;3.78;;;17.40;99.90;;;;;;5115164;27;20131;-84
2022/05/12 05:38:47;;;;;;;9.60;3.63;;;17.60;99.90;;;;;;5131132;27;20137;-85
2022/05/12 05:41:13;;;;;;;8.73;3.88;;;17.50;99.90;;;;;;5131612;27;20050;-84
2022/05/12 05:43:39;;;;;;;8.45;4.40;;;17.30;99.90;;;;;;5130461;27;20484;-84
2022/05/12 05:46:05;;;;;;;6.90;3.47;;;17.30;99.90;;;;;;5131157;27;20402;-84
2022/05/12 05:48:31;;;;;;;9.07;4.15;;;18.00;99.90;;;;;;5113652;27;20047;-85
2022/05/12 05:53:41;;;;;;;8.88;4.45;;;18.50;99.90;;;;;;5138743;27;20043;-85
2022/05/12 05:56:14;;;;;;;7.45;4.10;;;18.30;99.90;;;;;;5131417;27;20051;-86
2022/05/12 05:58:41;;;;;;;9.32;4.60;;;18.80;99.90;;;;;;5146169;27;20073;-84
2022/05/12 06:01:06;;;;;;;12.05;4.78;;;19.20;99.90;;;;;;5135560;27;20083;-85
2022/05/12 06:03:32;;;;;;;9.20;4.20;;;19.10;99.90;;;;;;5131386;27;20115;-84
2022/05/12 06:05:58;;;;;;;6.47;4.00;;;18.50;99.90;;;;;;5131183;27;20394;-85
2022/05/12 06:08:24;;;;;;;7.90;3.97;;;19.00;99.90;;;;;;5113973;28;20043;-84
2022/05/12 06:10:49;;;;;;;9.05;4.03;;;19.20;99.90;;;;;;5129782;28;20066;-84
2022/05/12 06:13:15;;;;;;;7.30;3.95;;;19.40;99.90;;;;;;5130826;28;20058;-85
2022/05/12 06:15:41;;;;;;;9.02;4.00;;;19.50;99.90;;;;;;5096149;28;20410;-86
2022/05/12 06:18:08;;;;;;;8.60;4.60;;;19.50;99.90;;;;;;5130646;28;20039;-85
2022/05/12 06:20:34;;;;;;;6.57;4.22;;;20.00;99.90;;;;;;5096429;28;20047;-84
2022/05/12 06:23:00;;;;;;;8.25;4.40;;;19.20;99.90;;;;;;5113661;28;20479;-85
2022/05/12 06:25:25;;;;;;;7.28;4.28;;;19.90;99.90;;;;;;5113451;28;20055;-84
2022/05/12 06:27:51;;;;;;;8.00;4.07;;;19.30;99.90;;;;;;5131351;28;20047;-86
2022/05/12 06:30:17;;;;;;;9.20;4.15;;;19.70;99.90;;;;;;5113089;28;20043;-85
2022/05/12 06:32:43;;;;;;;7.57;4.40;;;20.40;99.90;;;;;;5096123;28;20430;-85
2022/05/12 06:35:09;;;;;;;7.53;3.92;;;18.80;99.90;;;;;;5130457;28;20055;-86
2022/05/12 06:37:35;;;;;;;7.68;3.95;;;19.00;99.90;;;;;;5130463;28;20476;-86
2022/05/12 06:40:01;;;;;;;8.27;4.07;;;18.60;99.90;;;;;;5113325;28;20091;-86
2022/05/12 06:42:27;;;;;;;8.13;4.10;;;19.80;99.90;;;;;;5113538;28;20051;-86
2022/05/12 06:44:54;;;;;;;10.05;4.32;;;19.50;99.90;;;;;;5104670;28;20544;-86
2022/05/12 06:47:19;;;;;;;8.80;4.22;;;20.40;99.90;;;;;;5092991;28;20051;-86
2022/05/12 06:49:49;;;;;;;7.97;4.00;;;20.00;99.90;;;;;;5109139;28;20219;-86
2022/05/12 06:52:14;;;;;;;9.93;4.03;;;20.00;99.90;;;;;;5092586;28;20051;-85
2022/05/12 06:54:40;;;;;;;6.93;3.30;;;20.20;99.90;;;;;;5109454;28;20051;-86
2022/05/12 06:57:06;;;;;;;7.88;3.45;;;20.90;99.90;;;;;;5112409;28;20059;-86
2022/05/12 06:59:35;;;;;;;7.43;3.70;;;20.60;99.90;;;;;;5096803;28;20127;-85
2022/05/12 07:02:00;;;;;;;8.10;3.50;;;20.10;99.90;;;;;;5096619;27;20070;-85
2022/05/12 07:04:29;;;;;;;7.75;3.90;;;20.50;99.90;;;;;;5133122;27;20463;-91
2022/05/12 07:06:55;;;;;;;6.88;3.70;;;20.50;99.90;;;;;;5129835;27;20055;-92
2022/05/12 07:09:20;;;;;;;9.50;3.78;;;20.40;99.90;;;;;;5118640;27;20486;-91
2022/05/12 07:11:46;;;;;;;9.00;4.20;;;20.50;99.90;;;;;;5133845;27;20057;-91
2022/05/12 07:14:14;;;;;;;5.72;3.20;;;20.30;99.90;;;;;;5117310;27;20042;-92
2022/05/12 07:16:41;;;;;;;8.02;3.42;;;20.50;99.90;;;;;;5117128;27;20105;-89
2022/05/12 07:19:07;;;;;;;8.45;3.20;;;19.70;99.90;;;;;;5102924;27;20471;-91
2022/05/12 07:27:01;;;;;;;6.60;2.75;;;20.30;99.90;;;;;;5117057;27;20067;-89
2022/05/12 07:29:27;;;;;;;9.32;2.80;;;20.60;99.90;;;;;;5120153;27;20460;-88
2022/05/12 07:31:53;;;;;;;7.90;3.05;;;20.80;99.90;;;;;;5136515;27;20489;-88
2022/05/12 07:34:19;;;;;;;8.02;2.78;;;19.80;99.90;;;;;;5082857;27;20122;-89
2022/05/12 07:36:48;;;;;;;6.10;2.50;;;21.10;99.90;;;;;;5136070;27;20066;-87
2022/05/12 07:39:13;;;;;;;3.90;2.45;;;21.10;99.90;;;;;;5118224;27;20031;-85
2022/05/12 07:41:41;;;;;;;5.18;2.40;;;21.00;99.90;;;;;;5128751;27;20047;-90
2022/05/12 07:44:13;;;;;;;5.97;2.10;;;21.20;99.90;;;;;;5129977;27;20038;-86
2022/05/12 07:46:39;;;;;;;7.78;2.00;;;22.10;99.90;;;;;;5158517;27;20467;-87
2022/05/12 07:49:05;;;;;;;5.22;1.70;;;21.30;99.90;;;;;;5141612;27;20037;-90
2022/05/12 07:51:30;;;;;;;8.77;2.40;;;22.70;99.90;;;;;;5125637;27;20416;-91
2022/05/12 07:53:56;;;;;;;5.25;1.60;;;21.90;99.90;;;;;;5119820;27;20054;-88
2022/05/12 07:56:23;;;;;;;6.80;1.73;;;21.90;99.90;;;;;;5100273;27;20074;-85
2022/05/12 07:58:49;;;;;;;4.47;1.60;;;22.60;99.90;;;;;;5115751;27;20092;-86
2022/05/12 08:01:15;;;;;;;6.80;2.08;;;22.10;99.90;;;;;;5102813;27;20034;-87
2022/05/12 08:03:41;;;;;;;3.55;1.67;;;23.10;99.90;;;;;;5136662;27;20074;-89
2022/05/12 08:06:07;;;;;;;5.63;1.73;;;22.50;99.90;;;;;;5116717;27;20074;-89
2022/05/12 08:08:34;;;;;;;8.02;2.20;;;22.60;99.90;;;;;;5152572;27;20075;-88
2022/05/12 08:10:59;;;;;;;4.25;1.50;;;23.00;99.90;;;;;;5132525;27;20540;-88
2022/05/12 08:13:25;;;;;;;5.65;1.83;;;23.10;99.90;;;;;;5133762;27;20042;-90
2022/05/12 08:15:51;;;;;;;6.30;1.75;;;22.90;99.80;;;;;;5131449;27;20118;-89
2022/05/12 08:18:18;;;;;;;5.25;1.80;;;22.60;99.40;;;;;;5117242;27;20043;-89
2022/05/12 08:20:44;;;;;;;5.10;1.90;;;22.80;99.90;;;;;;5114365;27;20494;-91
2022/05/12 08:23:10;;;;;;;5.40;1.55;;;22.90;99.90;;;;;;5131391;27;20446;-90
2022/05/12 08:25:36;;;;;;;3.25;1.55;;;22.70;98.90;;;;;;5150413;27;20034;-90
2022/05/12 08:28:02;;;;;;;3.42;1.60;;;23.20;98.30;;;;;;5115939;27;20049;-91
2022/05/12 08:30:29;;;;;;;5.82;2.05;;;22.90;98.90;;;;;;5133246;27;20047;-88
2022/05/12 08:32:56;;;;;;;5.22;1.55;;;22.00;99.50;;;;;;5115400;27;20054;-88
2022/05/12 08:35:22;;;;;;;5.80;1.70;;;21.60;99.90;;;;;;5135273;27;20045;-91
2022/05/12 08:37:48;;;;;;;6.90;2.00;;;20.90;99.90;;;;;;5132917;27;20052;-89
2022/05/12 08:40:22;;;;;;;4.55;1.63;;;20.70;99.90;;;;;;5115119;27;20031;-89
2022/05/12 08:42:48;;;;;;;5.93;1.70;;;22.00;99.90;;;;;;5115388;27;20117;-90
2022/05/12 08:45:17;;;;;;;6.18;1.70;;;21.30;99.90;;;;;;5115788;27;20129;-85
2022/05/12 08:47:45;;;;;;;8.02;1.92;;;20.90;99.90;;;;;;5100285;27;20053;-88
2022/05/12 08:50:23;;;;;;;4.72;1.70;;;21.20;99.90;;;;;;5117677;27;20047;-86
2022/05/12 08:52:57;;;;;;;4.28;1.80;;;21.10;99.90;;;;;;5123889;27;20055;-85
2022/05/12 08:55:47;;;;;;;4.65;1.48;;;22.30;99.80;;;;;;5132568;27;20064;-85
2022/05/12 08:58:37;;;;;;;5.53;1.83;;;22.80;98.80;;;;;;5119993;27;20047;-85
2022/05/12 09:01:21;;;;;;;6.05;1.40;;;22.30;99.20;;;;;;5091495;27;20440;-86
2022/05/12 09:03:55;;;;;;;;;;;21.10;99.90;;;;;;5136621;27;20047;-85
2022/05/12 09:06:24;;;;;;;3.45;1.33;;;20.80;99.90;;;;;;5097665;27;20018;-91
2022/05/12 09:09:09;;;;;;;5.68;1.52;;;20.90;99.90;;;;;;5098586;27;20055;-91
2022/05/12 09:11:38;;;;;;;3.80;1.30;;;20.60;99.80;;;;;;5098745;27;20115;-92
2022/05/12 09:14:06;;;;;;;4.85;1.55;;;20.70;99.90;;;;;;5100476;27;20181;-88
2022/05/12 09:16:32;;;;;;;4.70;1.52;;;20.30;99.90;;;;;;5101193;27;20040;-88
2022/05/12 09:18:58;;;;;;;4.10;1.52;;;21.20;99.90;;;;;;5116766;27;20172;-89
2022/05/12 09:21:28;;;;;;;5.57;1.45;;;21.60;99.90;;;;;;5114494;27;20088;-88
2022/05/12 09:23:54;;;;;;;5.60;1.48;;;22.20;99.00;;;;;;5116698;27;20398;-88
2022/05/12 09:26:44;;;;;;;6.13;1.83;;;22.10;99.10;;;;;;5113652;27;20098;-88
2022/05/12 09:29:23;;;;;;;7.10;1.83;;;21.60;99.90;;;;;;5098007;27;20043;-88
2022/05/12 09:32:12;;;;;;;6.72;2.10;;;21.80;99.90;;;;;;5130996;27;20157;-89
2022/05/12 09:34:39;;;;;;;4.75;1.90;;;21.80;99.90;;;;;;5139890;27;20133;-88
2022/05/12 09:37:19;;;;;;;5.07;1.65;;;20.90;99.90;;;;;;5099516;27;20046;-88
2022/05/12 09:40:17;;;;;;;6.45;2.08;;;20.70;99.90;;;;;;5100030;27;20386;-91
2022/05/12 09:42:48;;;;;;;5.72;1.63;;;20.90;99.90;;;;;;5106551;27;20144;-88
2022/05/12 09:45:24;;;;;;;5.60;1.60;;;20.00;99.90;;;;;;5100305;27;20062;-88
2022/05/12 09:47:49;;;;;;;5.68;1.60;;;20.80;99.90;;;;;;5117014;27;20106;-89
2022/05/12 09:50:23;;;;;;;5.47;1.63;;;20.90;99.90;;;;;;5116938;27;20141;-91
2022/05/12 09:52:55;;;;;;;6.93;2.03;;;20.20;99.90;;;;;;5114261;27;20513;-90
2022/05/12 09:55:33;;;;;;;6.70;1.70;;;20.70;99.90;;;;;;5132302;27;20596;-89
2022/05/12 09:58:14;;;;;;;3.92;1.52;;;21.30;99.90;;;;;;5113702;27;20046;-88
2022/05/12 10:00:43;;;;;;;3.58;1.50;;;21.10;99.90;;;;;;5133990;27;20298;-91
2022/05/12 10:09:17;;;;;;;6.75;1.77;;;21.40;99.70;;;;;;5144403;27;20101;-87
2022/05/12 10:11:53;;;;;;;4.93;1.30;;;20.90;98.80;;;;;;5121733;27;20043;-88
2022/05/12 10:14:29;;;;;;;5.43;1.67;;;20.60;98.90;;;;;;5133518;27;20173;-86
2022/05/12 10:16:56;;;;;;;4.13;1.30;;;20.30;98.50;;;;;;5108086;27;20078;-87
2022/05/12 10:19:22;;;;;;;3.95;1.83;;;21.30;98.00;;;;;;5127652;27;20057;-85
2022/05/12 10:22:13;;;;;;;5.32;1.40;;;21.90;97.90;;;;;;5131551;27;20464;-88
2022/05/12 10:25:00;;;;;;;3.25;1.42;;;22.90;97.30;;;;;;5121495;27;20043;-88
2022/05/12 10:27:29;;;;;;;5.47;1.48;;;22.90;97.10;;;;;;5120814;27;20039;-92
2022/05/12 10:30:12;;;;;;;3.47;1.48;;;22.90;97.30;;;;;;5120523;27;20043;-86
2022/05/12 10:32:55;;;;;;;5.15;1.65;;;23.30;96.70;;;;;;5109819;27;20103;-86
2022/05/12 10:35:30;;;;;;;5.43;1.60;;;22.40;96.90;;;;;;5099896;27;20047;-89
2022/05/12 10:38:28;;;;;;;3.67;1.45;;;21.70;97.30;;;;;;5136991;27;20094;-84
2022/05/12 10:41:03;;;;;;;3.97;1.85;;;21.70;97.80;;;;;;5147983;27;20039;-85
2022/05/12 10:43:54;;;;;;;5.18;1.30;;;22.30;97.10;;;;;;5112843;27;20055;-87
2022/05/12 10:46:41;;;;;;;6.65;1.55;;;22.00;97.20;;;;;;5128695;27;20174;-91
2022/05/12 10:49:23;;;;;;;3.80;1.50;;;20.90;98.10;;;;;;5146371;27;20071;-92
2022/05/12 10:52:24;;;;;;;4.30;1.50;;;20.00;98.30;;;;;;5126957;27;20055;-91
2022/05/12 10:55:05;;;;;;;5.40;1.77;;;20.20;99.10;;;;;;5119752;27;20069;-86
2022/05/12 10:58:02;;;;;;;4.40;1.30;;;20.70;98.20;;;;;;5137430;27;20047;-88
2022/05/12 11:00:50;;;;;;;3.25;1.35;;;21.40;97.80;;;;;;5101941;27;20122;-89
2022/05/12 11:03:30;;;;;;;4.40;1.30;;;22.00;97.10;;;;;;5135564;27;20431;-88
2022/05/12 11:05:58;;;;;;;4.05;1.40;;;22.10;96.90;;;;;;5105413;27;20097;-89
2022/05/12 11:08:34;;;;;;;3.92;1.30;;;22.50;95.40;;;;;;5104514;27;20115;-90
2022/05/12 11:11:02;;;;;;;3.13;1.20;;;22.10;96.20;;;;;;5103962;27;20061;-89
2022/05/12 11:13:32;;;;;;;4.88;1.40;;;21.60;95.90;;;;;;5112755;27;20042;-90
2022/05/12 11:16:24;;;;;;;4.30;1.20;;;21.90;95.80;;;;;;5120673;27;20161;-90
2022/05/12 11:19:02;;;;;;;4.10;1.70;;;21.90;96.10;;;;;;5121008;27;20057;-90
2022/05/12 11:21:29;;;;;;;2.10;1.13;;;21.70;95.60;;;;;;5133672;27;20403;-90
2022/05/12 11:23:58;;;;;;;3.30;1.20;;;21.60;95.20;;;;;;5103833;27;20043;-86
2022/05/12 11:26:53;;;;;;;3.53;1.25;;;21.60;95.90;;;;;;5120325;27;20046;-89
2022/05/12 11:29:56;;;;;;;4.70;1.48;;;21.10;96.20;;;;;;5122508;27;20170;-88
2022/05/12 11:32:37;;;;;;;4.15;1.20;;;20.50;95.90;;;;;;5131499;27;20050;-89
2022/05/12 11:35:18;;;;;;;5.85;1.77;;;20.80;96.50;;;;;;5103766;27;20050;-89
2022/05/12 11:37:44;;;;;;;5.10;1.50;;;21.10;96.60;;;;;;5102518;27;20681;-88
2022/05/12 11:40:11;;;;;;;5.57;1.10;;;21.30;96.30;;;;;;5135553;27;20063;-88
2022/05/12 11:45:42;;;;;;;3.40;0.88;;;21.40;95.10;;;;;;5121542;27;20074;-89
2022/05/12 11:48:32;;;;;;;3.45;1.35;;;21.50;95.60;;;;;;5137181;27;20497;-91
2022/05/12 11:51:13;;;;;;;2.80;1.08;;;20.60;95.20;;;;;;5123687;27;20057;-87
2022/05/12 11:53:59;;;;;;;2.28;1.20;;;21.20;96.40;;;;;;5156366;27;20042;-89
2022/05/12 11:56:44;;;;;;;4.18;1.20;;;21.30;95.30;;;;;;5139040;27;20046;-88
2022/05/12 11:59:30;;;;;;;6.30;1.30;;;20.50;95.80;;;;;;5110581;27;20050;-89
2022/05/12 12:02:16;;;;;;;2.10;1.10;;;20.50;95.80;;;;;;5144927;27;20051;-86
2022/05/12 12:04:46;;;;;;;4.25;1.35;;;20.80;96.20;;;;;;5146269;27;20092;-92
2022/05/12 12:07:21;;;;;;;4.15;1.20;;;21.20;95.90;;;;;;5134925;27;20054;-89
2022/05/12 12:09:50;;;;;;;3.40;1.30;;;21.50;95.80;;;;;;5135855;27;20058;-90
2022/05/12 12:12:45;;;;;;;4.45;1.60;;;20.80;96.20;;;;;;5132020;27;20050;-89
2022/05/12 12:15:34;;;;;;;5.90;1.42;;;20.60;96.10;;;;;;5134224;27;20070;-88
2022/05/12 12:18:22;;;;;;;3.53;1.00;;;20.10;96.40;;;;;;5141562;27;20059;-90
2022/05/12 12:20:48;;;;;;;2.28;1.00;;;20.50;96.70;;;;;;5122461;27;20058;-89
2022/05/12 12:23:33;;;;;;;3.33;1.20;;;20.90;95.60;;;;;;5128530;27;20089;-89
2022/05/12 12:26:24;;;;;;;3.22;1.50;;;21.30;95.50;;;;;;5129559;27;20042;-87
2022/05/12 12:28:56;;;;;;;3.90;1.00;;;21.50;95.50;;;;;;5117030;27;20042;-85
2022/05/12 12:31:37;;;;;;;2.85;1.20;;;21.50;94.90;;;;;;5142319;27;20486;-88
2022/05/12 12:34:22;;;;;;;3.40;1.23;;;21.90;96.10;;;;;;5098538;27;20470;-88
2022/05/12 12:37:05;;;;;;;2.05;1.00;;;21.90;94.70;;;;;;5114831;27;20749;-87
2022/05/12 12:39:47;;;;;;;5.03;1.40;;;21.50;95.00;;;;;;5115108;27;20046;-87
2022/05/12 12:42:13;;;;;;;5.15;1.17;;;21.20;95.30;;;;;;5115493;27;20039;-89
2022/05/12 12:44:43;;;;;;;3.15;1.00;;;21.10;94.90;;;;;;5114492;27;20057;-88
2022/05/12 12:47:35;;;;;;;2.58;1.10;;;20.80;94.00;;;;;;5064998;27;20463;-87
2022/05/12 12:50:23;;;;;;;4.68;1.00;;;21.00;95.30;;;;;;5097975;27;20403;-88
2022/05/12 12:52:50;;;;;;;4.68;1.52;;;21.40;95.10;;;;;;5114062;27;20086;-87
2022/05/12 12:58:05;;;;;;;3.72;1.20;;;21.00;94.70;;;;;;5086398;27;20062;-87
2022/05/12 13:00:36;;;;;;;4.18;1.20;;;20.30;95.40;;;;;;5127248;27;20039;-88
2022/05/12 13:03:19;;;;;;;3.85;1.95;;;20.60;96.00;;;;;;5112766;27;20110;-87
2022/05/12 13:05:45;;;;;;;3.03;1.00;;;20.70;95.30;;;;;;5113628;27;20453;-87
2022/05/12 13:08:23;;;;;;;1.30;0.93;;;20.40;94.80;;;;;;5114620;27;20130;-85
2022/05/12 13:10:49;;;;;;;3.03;1.92;;;20.00;95.00;;;;;;5114257;27;20055;-88
2022/05/12 13:13:15;;;;;;;2.53;1.20;;;20.60;95.40;;;;;;5113368;27;20126;-87
2022/05/12 13:15:45;;;;;;;3.05;1.17;;;20.40;95.00;;;;;;5115837;27;20142;-86
2022/05/12 13:18:25;;;;;;;2.75;1.27;;;20.30;95.70;;;;;;5115949;27;20060;-86
2022/05/12 13:20:51;;;;;;;5.97;1.48;;;20.20;95.70;;;;;;5133228;27;20053;-86
2022/05/12 13:23:25;;;;;;;3.90;1.83;;;19.90;95.80;;;;;;5098502;27;20047;-87
2022/05/12 13:25:52;;;;;;;4.80;1.30;;;19.80;95.30;;;;;;5133098;27;20082;-87
2022/05/12 13:28:28;;;;;;;6.88;1.30;;;20.20;95.50;;;;;;5100542;27;20518;-89
2022/05/12 13:31:13;;;;;;;3.65;1.42;;;20.00;95.90;;;;;;5100928;27;20086;-87
2022/05/12 13:33:53;;;;;;;2.83;1.40;;;20.20;95.90;;;;;;5134609;27;20047;-85
2022/05/12 13:36:23;;;;;;;3.53;1.33;;;20.60;95.90;;;;;;5119162;27;20095;-85
2022/05/12 13:38:49;;;;;;;3.30;1.30;;;20.10;95.80;;;;;;5113565;27;20515;-85
2022/05/12 13:41:30;;;;;;;4.75;1.90;;;20.20;96.10;;;;;;5096731;27;20086;-84
2022/05/12 13:44:06;;;;;;;3.58;1.13;;;19.80;96.10;;;;;;5097208;27;20058;-84
2022/05/12 13:46:32;;;;;;;2.50;1.30;;;19.80;96.10;;;;;;5080106;27;20047;-85
2022/05/12 13:49:00;;;;;;;5.65;1.35;;;19.50;96.30;;;;;;5094544;27;20255;-86
2022/05/12 13:52:10;;;;;;;3.13;1.60;;;19.60;96.40;;;;;;5080278;27;20043;-85
2022/05/12 13:54:40;;;;;;;4.00;1.40;;;19.70;96.30;;;;;;5092295;27;20049;-85
2022/05/12 13:57:27;;;;;;;3.85;1.50;;;19.80;96.80;;;;;;5115716;27;20062;-85
2022/05/12 13:59:57;;;;;;;3.78;1.35;;;19.80;96.10;;;;;;5132741;27;20073;-86
2022/05/12 14:02:34;;;;;;;4.47;1.27;;;19.90;96.00;;;;;;5115453;27;20513;-84
2022/05/12 14:05:07;;;;;;;4.82;1.60;;;19.90;96.40;;;;;;5138519;27;20060;-85
2022/05/12 14:07:34;;;;;;;2.95;1.13;;;20.10;96.10;;;;;;5118149;27;20509;-86
2022/05/12 14:10:30;;;;;;;5.38;1.67;;;20.10;95.70;;;;;;5150407;27;20046;-86
2022/05/12 14:21:10;;;;;;;;;;;19.90;96.00;;;;;;5118754;27;20057;-84
2022/05/12 14:23:35;;;;;;;3.95;1.70;;;20.20;95.40;;;;;;5133497;27;19923;-84
2022/05/12 14:26:01;;;;;;;5.68;1.60;;;20.20;95.70;;;;;;5136132;27;20068;-86
2022/05/12 14:28:27;;;;;;;3.40;1.40;;;20.30;95.30;;;;;;5092619;28;20535;-85
2022/05/12 14:30:52;;;;;;;5.25;1.60;;;20.10;95.30;;;;;;5128776;27;20428;-87
2022/05/12 14:33:18;;;;;;;3.17;1.20;;;20.10;95.30;;;;;;5116328;27;20393;-85
2022/05/12 14:35:44;;;;;;;4.25;1.25;;;20.20;95.10;;;;;;5114781;27;20039;-85
2022/05/12 14:38:10;;;;;;;5.70;1.20;;;20.20;94.90;;;;;;5150434;27;20516;-86
2022/05/12 14:40:36;;;;;;;3.95;1.10;;;20.20;95.00;;;;;;5132639;27;20039;-88
2022/05/12 14:43:02;;;;;;;3.50;1.50;;;20.10;94.70;;;;;;5099018;27;20049;-86
2022/05/12 14:45:28;;;;;;;2.95;1.15;;;20.10;94.60;;;;;;5115075;27;20047;-86
2022/05/12 14:47:59;;;;;;;3.25;1.00;;;19.90;94.70;;;;;;5132201;27;20042;-86
2022/05/12 14:50:25;;;;;;;3.08;1.27;;;20.30;94.80;;;;;;5116351;27;20051;-86
2022/05/12 14:52:50;;;;;;;2.72;1.10;;;20.40;94.70;;;;;;5151659;27;20098;-85
2022/05/12 14:55:16;;;;;;;3.25;1.45;;;20.60;94.20;;;;;;5097703;27;20047;-86
2022/05/12 14:57:42;;;;;;;3.58;1.45;;;20.20;94.00;;;;;;5127172;27;20067;-86
2022/05/12 15:00:08;;;;;;;3.22;1.23;;;20.00;94.30;;;;;;5148005;27;20045;-89
2022/05/12 15:02:42;;;;;;;3.75;1.25;;;20.30;94.10;;;;;;5082133;27;20186;-87
2022/05/12 15:05:08;;;;;;;5.20;1.20;;;20.30;94.40;;;;;;5114697;27;20050;-84
2022/05/12 15:07:36;;;;;;;3.75;1.23;;;20.00;94.40;;;;;;5143490;27;20191;-85
2022/05/12 15:10:02;;;;;;;2.53;1.10;;;20.20;94.20;;;;;;5119477;27;20045;-85
2022/05/12 15:12:28;;;;;;;1.73;1.00;;;20.00;94.20;;;;;;5115854;27;20047;-86
2022/05/12 15:14:53;;;;;;;2.40;1.10;;;20.00;93.90;;;;;;5152576;27;20047;-83
2022/05/12 15:17:27;;;;;;;3.10;1.30;;;20.30;94.40;;;;;;5131403;27;20050;-86
2022/05/12 15:19:53;;;;;;;2.17;1.02;;;20.00;93.90;;;;;;5120591;27;20042;-84
2022/05/12 15:22:18;;;;;;;2.70;0.95;;;20.20;93.30;;;;;;5123158;27;20046;-88
2022/05/12 15:24:46;;;;;;;3.28;1.25;;;20.20;93.60;;;;;;5130366;27;20375;-86
2022/05/12 15:27:12;;;;;;;3.92;1.27;;;20.20;93.80;;;;;;5113538;27;20161;-84
2022/05/12 15:29:43;;;;;;;3.92;1.40;;;20.20;94.90;;;;;;5125954;27;20122;-85
2022/05/12 15:32:09;;;;;;;2.25;1.65;;;20.20;94.80;;;;;;5138289;27;20050;-85
2022/05/12 15:34:35;;;;;;;4.18;1.00;;;20.00;94.10;;;;;;5120665;27;20547;-86
2022/05/12 15:37:00;;;;;;;4.43;1.10;;;20.10;94.10;;;;;;5120011;27;20050;-87
2022/05/12 15:39:26;;;;;;;3.58;1.50;;;20.20;94.20;;;;;;5137557;27;20039;-88
2022/05/12 15:41:53;;;;;;;4.95;1.50;;;19.90;94.50;;;;;;5119752;27;20046;-87
2022/05/12 15:44:19;;;;;;;1.73;1.00;;;19.70;95.30;;;;;;5120057;27;20493;-87
2022/05/12 15:46:51;;;;;;;3.03;1.25;;;19.80;95.40;;;;;;5135052;27;20047;-87